sensor_id;sensor_type;location;lat;lon;timestamp;temperature;humidity
2929;DHT22;1474;51.460;7.150;2024-03-07T00:00:21;6.40;95.10
2929;DHT22;1474;51.460;7.150;2024-03-07T00:03:06;6.40;95.10
2929;DHT22;1474;51.460;7.150;2024-03-07T00:05:51;6.30;95.10
2929;DHT22;1474;51.460;7.150;2024-03-07T00:08:35;6.30;95.10
2929;DHT22;1474;51.460;7.150;2024-03-07T00:11:20;6.20;95.10
2929;DHT22;1474;51.460;7.150;2024-03-07T00:14:04;6.20;95.10
2929;DHT22;1474;51.460;7.150;2024-03-07T00:16:50;6.20;95.10
2929;DHT22;1474;51.460;7.150;2024-03-07T00:19:35;6.20;95.10
2929;DHT22;1474;51.460;7.150;2024-03-07T00:22:19;6.10;95.00
2929;DHT22;1474;51.460;7.150;2024-03-07T00:25:04;6.10;95.00
2929;DHT22;1474;51.460;7.150;2024-03-07T00:27:49;6.10;94.90
2929;DHT22;1474;51.460;7.150;2024-03-07T00:30:36;6.10;94.90
2929;DHT22;1474;51.460;7.150;2024-03-07T00:33:21;6.00;94.90
2929;DHT22;1474;51.460;7.150;2024-03-07T00:36:06;6.00;94.90
2929;DHT22;1474;51.460;7.150;2024-03-07T00:38:51;6.00;95.00
2929;DHT22;1474;51.460;7.150;2024-03-07T00:41:35;5.90;95.00
2929;DHT22;1474;51.460;7.150;2024-03-07T00:44:20;5.90;95.10
2929;DHT22;1474;51.460;7.150;2024-03-07T00:47:05;5.90;95.10
2929;DHT22;1474;51.460;7.150;2024-03-07T00:49:52;5.80;95.10
2929;DHT22;1474;51.460;7.150;2024-03-07T00:52:36;5.80;95.10
2929;DHT22;1474;51.460;7.150;2024-03-07T00:55:21;5.80;95.10
2929;DHT22;1474;51.460;7.150;2024-03-07T00:58:05;5.70;95.10
2929;DHT22;1474;51.460;7.150;2024-03-07T01:00:49;5.70;95.10
2929;DHT22;1474;51.460;7.150;2024-03-07T01:03:34;5.70;95.10
2929;DHT22;1474;51.460;7.150;2024-03-07T01:06:18;5.70;95.10
2929;DHT22;1474;51.460;7.150;2024-03-07T01:09:04;5.60;95.00
2929;DHT22;1474;51.460;7.150;2024-03-07T01:11:51;5.60;95.00
2929;DHT22;1474;51.460;7.150;2024-03-07T01:14:35;5.60;95.00
2929;DHT22;1474;51.460;7.150;2024-03-07T01:17:20;5.50;95.00
2929;DHT22;1474;51.460;7.150;2024-03-07T01:20:04;5.50;95.00
2929;DHT22;1474;51.460;7.150;2024-03-07T01:22:52;5.50;95.00
2929;DHT22;1474;51.460;7.150;2024-03-07T01:25:36;5.40;94.90
2929;DHT22;1474;51.460;7.150;2024-03-07T01:28:20;5.40;94.80
2929;DHT22;1474;51.460;7.150;2024-03-07T01:31:07;5.40;94.80
2929;DHT22;1474;51.460;7.150;2024-03-07T01:33:52;5.40;94.80
2929;DHT22;1474;51.460;7.150;2024-03-07T01:36:36;5.30;94.70
2929;DHT22;1474;51.460;7.150;2024-03-07T01:39:20;5.30;94.80
2929;DHT22;1474;51.460;7.150;2024-03-07T01:42:05;5.20;94.70
2929;DHT22;1474;51.460;7.150;2024-03-07T01:44:49;5.20;94.80
2929;DHT22;1474;51.460;7.150;2024-03-07T01:47:35;5.20;94.80
2929;DHT22;1474;51.460;7.150;2024-03-07T01:50:20;5.20;94.80
2929;DHT22;1474;51.460;7.150;2024-03-07T01:53:07;5.20;94.80
2929;DHT22;1474;51.460;7.150;2024-03-07T01:55:54;5.20;94.80
2929;DHT22;1474;51.460;7.150;2024-03-07T08:22:23;4.90;99.90
2929;DHT22;1474;51.460;7.150;2024-03-07T08:24:50;5.20;99.90
2929;DHT22;1474;51.460;7.150;2024-03-07T08:27:15;5.30;99.90
2929;DHT22;1474;51.460;7.150;2024-03-07T08:29:41;5.40;99.90
2929;DHT22;1474;51.460;7.150;2024-03-07T08:32:07;5.50;99.90
2929;DHT22;1474;51.460;7.150;2024-03-07T09:40:30;7.00;99.90
2929;DHT22;1474;51.460;7.150;2024-03-07T09:42:56;6.40;99.90
2929;DHT22;1474;51.460;7.150;2024-03-07T09:45:29;6.50;99.90
2929;DHT22;1474;51.460;7.150;2024-03-07T09:47:55;6.70;99.90
2929;DHT22;1474;51.460;7.150;2024-03-07T09:50:21;6.80;92.20
2929;DHT22;1474;51.460;7.150;2024-03-07T09:52:48;6.80;92.40
2929;DHT22;1474;51.460;7.150;2024-03-07T09:55:17;6.70;91.80
2929;DHT22;1474;51.460;7.150;2024-03-07T09:57:46;6.80;91.90
2929;DHT22;1474;51.460;7.150;2024-03-07T10:00:16;6.80;92.00
2929;DHT22;1474;51.460;7.150;2024-03-07T10:02:50;6.80;92.20
2929;DHT22;1474;51.460;7.150;2024-03-07T10:05:18;6.90;91.20
2929;DHT22;1474;51.460;7.150;2024-03-07T10:07:45;6.90;90.30
2929;DHT22;1474;51.460;7.150;2024-03-07T10:10:11;7.00;89.20
2929;DHT22;1474;51.460;7.150;2024-03-07T10:12:38;7.00;89.20
2929;DHT22;1474;51.460;7.150;2024-03-07T10:15:04;7.20;90.30
2929;DHT22;1474;51.460;7.150;2024-03-07T10:17:38;7.30;86.90
2929;DHT22;1474;51.460;7.150;2024-03-07T10:20:05;7.20;86.80
2929;DHT22;1474;51.460;7.150;2024-03-07T10:22:36;7.10;87.50
2929;DHT22;1474;51.460;7.150;2024-03-07T10:25:03;7.10;88.00
2929;DHT22;1474;51.460;7.150;2024-03-07T10:27:29;7.20;90.30
2929;DHT22;1474;51.460;7.150;2024-03-07T10:29:55;7.20;99.90
2929;DHT22;1474;51.460;7.150;2024-03-07T10:32:22;7.30;99.90
2929;DHT22;1474;51.460;7.150;2024-03-07T10:34:50;7.30;99.90
2929;DHT22;1474;51.460;7.150;2024-03-07T10:37:16;7.30;99.90
2929;DHT22;1474;51.460;7.150;2024-03-07T10:39:46;7.40;99.90
2929;DHT22;1474;51.460;7.150;2024-03-07T10:44:45;7.80;98.00
2929;DHT22;1474;51.460;7.150;2024-03-07T10:57:56;8.20;91.30
2929;DHT22;1474;51.460;7.150;2024-03-07T11:00:26;8.30;97.30
2929;DHT22;1474;51.460;7.150;2024-03-07T11:02:57;8.40;97.20
2929;DHT22;1474;51.460;7.150;2024-03-07T11:05:26;8.60;96.90
2929;DHT22;1474;51.460;7.150;2024-03-07T11:07:57;8.80;96.90
2929;DHT22;1474;51.460;7.150;2024-03-07T11:10:24;8.80;97.20
2929;DHT22;1474;51.460;7.150;2024-03-07T11:12:51;9.00;96.70
2929;DHT22;1474;51.460;7.150;2024-03-07T11:15:18;9.00;97.00
2929;DHT22;1474;51.460;7.150;2024-03-07T11:17:49;9.10;96.40
2929;DHT22;1474;51.460;7.150;2024-03-07T11:22:45;9.30;98.20
2929;DHT22;1474;51.460;7.150;2024-03-07T11:25:11;9.50;97.90
2929;DHT22;1474;51.460;7.150;2024-03-07T11:27:37;9.60;97.80
2929;DHT22;1474;51.460;7.150;2024-03-07T11:30:08;9.60;99.60
2929;DHT22;1474;51.460;7.150;2024-03-07T11:32:38;9.60;99.60
2929;DHT22;1474;51.460;7.150;2024-03-07T11:35:33;9.70;97.00
2929;DHT22;1474;51.460;7.150;2024-03-07T11:38:02;9.80;96.60
2929;DHT22;1474;51.460;7.150;2024-03-07T11:42:57;9.70;98.00
2929;DHT22;1474;51.460;7.150;2024-03-07T11:45:25;10.00;97.20
2929;DHT22;1474;51.460;7.150;2024-03-07T11:50:36;10.60;98.90
2929;DHT22;1474;51.460;7.150;2024-03-07T11:53:04;10.70;95.00
2929;DHT22;1474;51.460;7.150;2024-03-07T11:55:36;10.60;90.90
2929;DHT22;1474;51.460;7.150;2024-03-07T11:58:20;10.20;91.60
2929;DHT22;1474;51.460;7.150;2024-03-07T12:00:50;10.30;91.50
2929;DHT22;1474;51.460;7.150;2024-03-07T12:03:18;10.50;91.80
2929;DHT22;1474;51.460;7.150;2024-03-07T12:05:46;10.30;91.20
2929;DHT22;1474;51.460;7.150;2024-03-07T12:08:12;10.20;92.20
2929;DHT22;1474;51.460;7.150;2024-03-07T12:10:39;10.20;92.20
2929;DHT22;1474;51.460;7.150;2024-03-07T12:13:06;10.20;91.40
2929;DHT22;1474;51.460;7.150;2024-03-07T12:15:33;10.10;92.30
2929;DHT22;1474;51.460;7.150;2024-03-07T12:18:01;10.00;92.80
2929;DHT22;1474;51.460;7.150;2024-03-07T12:20:27;10.30;92.60
2929;DHT22;1474;51.460;7.150;2024-03-07T12:22:56;10.40;92.00
2929;DHT22;1474;51.460;7.150;2024-03-07T12:25:22;10.30;92.00
2929;DHT22;1474;51.460;7.150;2024-03-07T12:28:10;10.00;92.60
2929;DHT22;1474;51.460;7.150;2024-03-07T12:33:13;9.70;93.50
2929;DHT22;1474;51.460;7.150;2024-03-07T12:35:49;9.90;92.70
2929;DHT22;1474;51.460;7.150;2024-03-07T12:38:17;9.90;92.50
2929;DHT22;1474;51.460;7.150;2024-03-07T12:40:43;9.80;93.40
2929;DHT22;1474;51.460;7.150;2024-03-07T12:43:19;9.90;93.00
2929;DHT22;1474;51.460;7.150;2024-03-07T12:45:49;9.80;92.30
2929;DHT22;1474;51.460;7.150;2024-03-07T12:48:16;9.70;92.80
2929;DHT22;1474;51.460;7.150;2024-03-07T12:50:44;9.70;92.80
2929;DHT22;1474;51.460;7.150;2024-03-07T12:53:10;9.60;92.60
2929;DHT22;1474;51.460;7.150;2024-03-07T12:55:40;9.50;93.10
2929;DHT22;1474;51.460;7.150;2024-03-07T12:58:11;9.50;93.10
2929;DHT22;1474;51.460;7.150;2024-03-07T13:00:41;9.50;93.20
2929;DHT22;1474;51.460;7.150;2024-03-07T13:03:10;9.40;93.20
2929;DHT22;1474;51.460;7.150;2024-03-07T13:05:39;9.40;93.10
2929;DHT22;1474;51.460;7.150;2024-03-07T13:08:06;9.50;93.40
2929;DHT22;1474;51.460;7.150;2024-03-07T13:10:34;9.50;93.50
2929;DHT22;1474;51.460;7.150;2024-03-07T13:13:00;9.50;93.40
2929;DHT22;1474;51.460;7.150;2024-03-07T13:15:28;9.60;93.10
2929;DHT22;1474;51.460;7.150;2024-03-07T13:17:53;9.60;92.90
2929;DHT22;1474;51.460;7.150;2024-03-07T13:20:20;9.60;93.10
2929;DHT22;1474;51.460;7.150;2024-03-07T13:22:52;9.60;93.30
2929;DHT22;1474;51.460;7.150;2024-03-07T13:25:23;9.70;93.20
2929;DHT22;1474;51.460;7.150;2024-03-07T13:28:05;9.60;93.30
2929;DHT22;1474;51.460;7.150;2024-03-07T13:30:39;9.60;93.50
2929;DHT22;1474;51.460;7.150;2024-03-07T13:33:05;9.70;93.60
2929;DHT22;1474;51.460;7.150;2024-03-07T13:35:31;9.80;93.60
2929;DHT22;1474;51.460;7.150;2024-03-07T13:37:57;9.80;92.70
2929;DHT22;1474;51.460;7.150;2024-03-07T13:40:24;9.80;92.40
2929;DHT22;1474;51.460;7.150;2024-03-07T13:45:20;9.40;92.10
2929;DHT22;1474;51.460;7.150;2024-03-07T13:47:47;9.40;92.40
2929;DHT22;1474;51.460;7.150;2024-03-07T13:50:18;9.30;92.10
2929;DHT22;1474;51.460;7.150;2024-03-07T13:52:46;9.40;92.70
2929;DHT22;1474;51.460;7.150;2024-03-07T13:55:31;9.50;91.90
2929;DHT22;1474;51.460;7.150;2024-03-07T13:58:03;9.50;92.70
2929;DHT22;1474;51.460;7.150;2024-03-07T14:00:55;9.60;92.00
2929;DHT22;1474;51.460;7.150;2024-03-07T14:03:50;9.60;91.90
2929;DHT22;1474;51.460;7.150;2024-03-07T14:09:42;9.70;92.20
2929;DHT22;1474;51.460;7.150;2024-03-07T14:12:25;9.80;91.40
2929;DHT22;1474;51.460;7.150;2024-03-07T14:29:47;9.70;90.80
2929;DHT22;1474;51.460;7.150;2024-03-07T14:31:41;9.50;91.20
2929;DHT22;1474;51.460;7.150;2024-03-07T14:36:47;9.60;90.70
2929;DHT22;1474;51.460;7.150;2024-03-07T14:39:17;9.70;90.90
2929;DHT22;1474;51.460;7.150;2024-03-07T14:41:58;9.70;90.20
2929;DHT22;1474;51.460;7.150;2024-03-07T14:44:27;9.70;87.70
2929;DHT22;1474;51.460;7.150;2024-03-07T14:46:57;9.80;90.00
2929;DHT22;1474;51.460;7.150;2024-03-07T14:49:25;10.00;86.60
2929;DHT22;1474;51.460;7.150;2024-03-07T14:51:50;10.20;88.80
2929;DHT22;1474;51.460;7.150;2024-03-07T14:54:22;10.30;82.60
2929;DHT22;1474;51.460;7.150;2024-03-07T14:56:47;10.30;85.70
2929;DHT22;1474;51.460;7.150;2024-03-07T14:59:13;10.30;82.70
2929;DHT22;1474;51.460;7.150;2024-03-07T15:01:41;10.20;81.60
2929;DHT22;1474;51.460;7.150;2024-03-07T15:04:07;10.10;80.90
2929;DHT22;1474;51.460;7.150;2024-03-07T15:06:34;9.90;82.40
2929;DHT22;1474;51.460;7.150;2024-03-07T15:09:01;10.00;84.30
2929;DHT22;1474;51.460;7.150;2024-03-07T15:11:34;10.00;83.70
2929;DHT22;1474;51.460;7.150;2024-03-07T15:14:00;10.00;84.50
2929;DHT22;1474;51.460;7.150;2024-03-07T15:16:30;10.00;85.00
2929;DHT22;1474;51.460;7.150;2024-03-07T15:19:00;10.00;85.10
2929;DHT22;1474;51.460;7.150;2024-03-07T15:21:26;9.80;84.40
2929;DHT22;1474;51.460;7.150;2024-03-07T15:23:54;9.60;84.60
2929;DHT22;1474;51.460;7.150;2024-03-07T15:26:20;9.50;86.60
2929;DHT22;1474;51.460;7.150;2024-03-07T15:28:52;9.50;86.80
2929;DHT22;1474;51.460;7.150;2024-03-07T15:31:18;9.40;86.80
2929;DHT22;1474;51.460;7.150;2024-03-07T15:33:48;9.40;86.90
2929;DHT22;1474;51.460;7.150;2024-03-07T15:36:15;9.40;87.30
2929;DHT22;1474;51.460;7.150;2024-03-07T15:38:41;9.40;88.20
2929;DHT22;1474;51.460;7.150;2024-03-07T15:41:07;9.50;88.80
2929;DHT22;1474;51.460;7.150;2024-03-07T15:43:40;9.60;89.50
2929;DHT22;1474;51.460;7.150;2024-03-07T15:46:10;9.60;88.80
2929;DHT22;1474;51.460;7.150;2024-03-07T15:48:37;9.50;90.00
2929;DHT22;1474;51.460;7.150;2024-03-07T15:51:03;9.50;90.50
2929;DHT22;1474;51.460;7.150;2024-03-07T15:53:30;9.50;91.20
2929;DHT22;1474;51.460;7.150;2024-03-07T15:55:59;9.50;90.70
2929;DHT22;1474;51.460;7.150;2024-03-07T15:58:25;9.40;90.80
2929;DHT22;1474;51.460;7.150;2024-03-07T16:00:51;9.40;91.00
2929;DHT22;1474;51.460;7.150;2024-03-07T16:03:16;9.40;91.00
2929;DHT22;1474;51.460;7.150;2024-03-07T16:05:43;9.30;91.40
2929;DHT22;1474;51.460;7.150;2024-03-07T16:08:14;9.30;91.10
2929;DHT22;1474;51.460;7.150;2024-03-07T16:10:40;9.20;91.30
2929;DHT22;1474;51.460;7.150;2024-03-07T16:13:08;9.20;91.20
2929;DHT22;1474;51.460;7.150;2024-03-07T16:15:37;9.10;91.60
2929;DHT22;1474;51.460;7.150;2024-03-07T16:18:04;9.20;91.50
2929;DHT22;1474;51.460;7.150;2024-03-07T16:20:32;9.10;91.60
2929;DHT22;1474;51.460;7.150;2024-03-07T16:23:02;9.20;91.80
2929;DHT22;1474;51.460;7.150;2024-03-07T16:25:32;9.20;91.40
2929;DHT22;1474;51.460;7.150;2024-03-07T16:27:59;9.10;91.70
2929;DHT22;1474;51.460;7.150;2024-03-07T16:30:26;9.10;91.70
2929;DHT22;1474;51.460;7.150;2024-03-07T16:32:53;9.10;91.80
2929;DHT22;1474;51.460;7.150;2024-03-07T16:35:29;9.10;91.60
2929;DHT22;1474;51.460;7.150;2024-03-07T16:37:57;9.10;91.70
2929;DHT22;1474;51.460;7.150;2024-03-07T16:40:24;9.00;91.60
2929;DHT22;1474;51.460;7.150;2024-03-07T16:42:53;9.10;92.10
2929;DHT22;1474;51.460;7.150;2024-03-07T16:45:30;9.00;91.80
2929;DHT22;1474;51.460;7.150;2024-03-07T16:47:58;9.00;92.00
2929;DHT22;1474;51.460;7.150;2024-03-07T16:50:26;9.00;91.70
2929;DHT22;1474;51.460;7.150;2024-03-07T16:52:57;8.90;91.70
2929;DHT22;1474;51.460;7.150;2024-03-07T16:55:23;8.90;92.40
2929;DHT22;1474;51.460;7.150;2024-03-07T16:57:51;8.80;91.90
2929;DHT22;1474;51.460;7.150;2024-03-07T17:00:20;8.90;91.90
2929;DHT22;1474;51.460;7.150;2024-03-07T17:03:04;8.90;91.90
2929;DHT22;1474;51.460;7.150;2024-03-07T17:05:39;8.80;91.90
2929;DHT22;1474;51.460;7.150;2024-03-07T17:08:05;8.70;91.90
2929;DHT22;1474;51.460;7.150;2024-03-07T17:10:34;8.80;91.50
2929;DHT22;1474;51.460;7.150;2024-03-07T17:13:02;8.90;91.40
2929;DHT22;1474;51.460;7.150;2024-03-07T17:15:28;8.80;91.60
2929;DHT22;1474;51.460;7.150;2024-03-07T17:17:56;8.70;91.50
2929;DHT22;1474;51.460;7.150;2024-03-07T17:20:25;8.80;91.70
2929;DHT22;1474;51.460;7.150;2024-03-07T17:22:55;8.80;91.40
2929;DHT22;1474;51.460;7.150;2024-03-07T17:25:22;8.80;91.70
2929;DHT22;1474;51.460;7.150;2024-03-07T17:27:50;8.80;91.60
2929;DHT22;1474;51.460;7.150;2024-03-07T17:30:18;8.70;91.30
2929;DHT22;1474;51.460;7.150;2024-03-07T17:32:44;8.70;91.40
2929;DHT22;1474;51.460;7.150;2024-03-07T17:35:17;8.70;91.50
2929;DHT22;1474;51.460;7.150;2024-03-07T17:37:47;8.60;91.80
2929;DHT22;1474;51.460;7.150;2024-03-07T17:40:13;8.50;91.90
2929;DHT22;1474;51.460;7.150;2024-03-07T17:42:51;8.50;91.60
2929;DHT22;1474;51.460;7.150;2024-03-07T17:45:22;8.40;91.70
2929;DHT22;1474;51.460;7.150;2024-03-07T17:47:49;8.30;91.80
2929;DHT22;1474;51.460;7.150;2024-03-07T17:50:21;8.20;91.70
2929;DHT22;1474;51.460;7.150;2024-03-07T17:52:56;8.20;91.90
2929;DHT22;1474;51.460;7.150;2024-03-07T17:55:27;8.30;92.00
2929;DHT22;1474;51.460;7.150;2024-03-07T17:57:53;8.30;92.00
2929;DHT22;1474;51.460;7.150;2024-03-07T18:00:19;8.30;91.50
2929;DHT22;1474;51.460;7.150;2024-03-07T18:02:59;8.10;91.90
2929;DHT22;1474;51.460;7.150;2024-03-07T18:05:27;8.10;92.00
2929;DHT22;1474;51.460;7.150;2024-03-07T18:07:55;8.00;92.10
2929;DHT22;1474;51.460;7.150;2024-03-07T18:10:22;8.10;92.10
2929;DHT22;1474;51.460;7.150;2024-03-07T18:12:52;8.10;91.90
2929;DHT22;1474;51.460;7.150;2024-03-07T18:15:23;8.00;92.10
2929;DHT22;1474;51.460;7.150;2024-03-07T18:17:55;8.00;91.80
2929;DHT22;1474;51.460;7.150;2024-03-07T18:20:28;8.00;91.70
2929;DHT22;1474;51.460;7.150;2024-03-07T18:22:55;8.00;92.10
2929;DHT22;1474;51.460;7.150;2024-03-07T18:25:21;7.90;91.90
2929;DHT22;1474;51.460;7.150;2024-03-07T18:27:56;8.00;92.50
2929;DHT22;1474;51.460;7.150;2024-03-07T18:30:23;7.80;92.10
2929;DHT22;1474;51.460;7.150;2024-03-07T18:32:50;7.80;88.40
2929;DHT22;1474;51.460;7.150;2024-03-07T18:35:16;7.70;83.50
2929;DHT22;1474;51.460;7.150;2024-03-07T18:37:42;7.70;83.90
2929;DHT22;1474;51.460;7.150;2024-03-07T18:40:13;7.70;83.20
2929;DHT22;1474;51.460;7.150;2024-03-07T18:42:42;7.80;83.80
2929;DHT22;1474;51.460;7.150;2024-03-07T18:45:12;7.60;83.50
2929;DHT22;1474;51.460;7.150;2024-03-07T18:47:43;7.50;83.60
2929;DHT22;1474;51.460;7.150;2024-03-07T18:50:14;7.50;84.30
2929;DHT22;1474;51.460;7.150;2024-03-07T18:52:40;7.40;84.20
2929;DHT22;1474;51.460;7.150;2024-03-07T18:57:46;7.40;85.00
2929;DHT22;1474;51.460;7.150;2024-03-07T19:00:21;7.40;84.90
2929;DHT22;1474;51.460;7.150;2024-03-07T19:05:33;7.30;85.20
2929;DHT22;1474;51.460;7.150;2024-03-07T19:08:02;7.20;85.10
2929;DHT22;1474;51.460;7.150;2024-03-07T19:10:38;7.20;85.40
2929;DHT22;1474;51.460;7.150;2024-03-07T19:13:04;7.20;85.40
2929;DHT22;1474;51.460;7.150;2024-03-07T19:15:35;7.10;85.60
2929;DHT22;1474;51.460;7.150;2024-03-07T19:18:02;7.10;85.60
2929;DHT22;1474;51.460;7.150;2024-03-07T19:20:27;7.00;86.00
2929;DHT22;1474;51.460;7.150;2024-03-07T19:22:57;7.10;86.10
2929;DHT22;1474;51.460;7.150;2024-03-07T19:25:22;7.10;85.70
2929;DHT22;1474;51.460;7.150;2024-03-07T19:27:49;7.00;85.80
2929;DHT22;1474;51.460;7.150;2024-03-07T19:30:15;7.00;86.60
2929;DHT22;1474;51.460;7.150;2024-03-07T19:32:45;7.00;99.90
2929;DHT22;1474;51.460;7.150;2024-03-07T19:35:11;7.10;99.90
2929;DHT22;1474;51.460;7.150;2024-03-07T19:37:43;7.00;98.40
2929;DHT22;1474;51.460;7.150;2024-03-07T19:40:11;7.00;97.50
2929;DHT22;1474;51.460;7.150;2024-03-07T19:42:39;7.00;96.90
2929;DHT22;1474;51.460;7.150;2024-03-07T19:45:05;7.00;96.60
2929;DHT22;1474;51.460;7.150;2024-03-07T19:47:31;7.00;97.00
2929;DHT22;1474;51.460;7.150;2024-03-07T19:49:57;6.90;97.20
2929;DHT22;1474;51.460;7.150;2024-03-07T19:52:22;6.80;96.50
2929;DHT22;1474;51.460;7.150;2024-03-07T19:54:49;6.80;96.50
2929;DHT22;1474;51.460;7.150;2024-03-07T19:57:15;6.70;96.60
2929;DHT22;1474;51.460;7.150;2024-03-07T19:59:44;6.60;96.80
2929;DHT22;1474;51.460;7.150;2024-03-07T20:02:10;6.60;96.80
2929;DHT22;1474;51.460;7.150;2024-03-07T20:04:35;6.60;96.70
2929;DHT22;1474;51.460;7.150;2024-03-07T20:07:01;6.60;96.70
2929;DHT22;1474;51.460;7.150;2024-03-07T20:09:28;6.50;96.70
2929;DHT22;1474;51.460;7.150;2024-03-07T20:11:53;6.50;96.80
2929;DHT22;1474;51.460;7.150;2024-03-07T20:14:20;6.50;96.80
2929;DHT22;1474;51.460;7.150;2024-03-07T20:16:47;6.50;96.90
2929;DHT22;1474;51.460;7.150;2024-03-07T20:19:13;6.50;98.10
2929;DHT22;1474;51.460;7.150;2024-03-07T20:21:39;6.40;99.90
2929;DHT22;1474;51.460;7.150;2024-03-07T20:24:04;6.40;99.90
2929;DHT22;1474;51.460;7.150;2024-03-07T20:26:33;6.20;99.90
2929;DHT22;1474;51.460;7.150;2024-03-07T20:29:00;6.20;99.90
2929;DHT22;1474;51.460;7.150;2024-03-07T20:31:30;6.20;99.90
2929;DHT22;1474;51.460;7.150;2024-03-07T20:33:56;6.20;99.90
2929;DHT22;1474;51.460;7.150;2024-03-07T20:36:24;6.20;99.90
2929;DHT22;1474;51.460;7.150;2024-03-07T20:38:51;6.20;99.90
2929;DHT22;1474;51.460;7.150;2024-03-07T20:41:16;6.20;99.90
2929;DHT22;1474;51.460;7.150;2024-03-07T20:43:42;6.30;99.90
2929;DHT22;1474;51.460;7.150;2024-03-07T20:46:09;6.40;99.90
2929;DHT22;1474;51.460;7.150;2024-03-07T20:48:34;6.30;99.90
2929;DHT22;1474;51.460;7.150;2024-03-07T20:51:00;6.30;99.90
2929;DHT22;1474;51.460;7.150;2024-03-07T20:53:26;6.30;99.90
2929;DHT22;1474;51.460;7.150;2024-03-07T20:55:56;6.30;99.90
2929;DHT22;1474;51.460;7.150;2024-03-07T20:58:24;6.30;99.90
2929;DHT22;1474;51.460;7.150;2024-03-07T21:00:52;6.30;99.90
2929;DHT22;1474;51.460;7.150;2024-03-07T21:03:19;6.20;99.90
2929;DHT22;1474;51.460;7.150;2024-03-07T21:05:52;6.20;99.90
2929;DHT22;1474;51.460;7.150;2024-03-07T21:08:19;6.20;99.90
2929;DHT22;1474;51.460;7.150;2024-03-07T21:10:45;6.30;99.90
2929;DHT22;1474;51.460;7.150;2024-03-07T21:13:11;6.30;99.70
2929;DHT22;1474;51.460;7.150;2024-03-07T21:15:38;6.30;99.60
2929;DHT22;1474;51.460;7.150;2024-03-07T21:18:04;6.40;99.50
2929;DHT22;1474;51.460;7.150;2024-03-07T21:20:33;6.40;99.50
2929;DHT22;1474;51.460;7.150;2024-03-07T21:22:59;6.40;99.40
2929;DHT22;1474;51.460;7.150;2024-03-07T21:25:26;6.30;99.30
2929;DHT22;1474;51.460;7.150;2024-03-07T21:27:52;6.30;99.40
2929;DHT22;1474;51.460;7.150;2024-03-07T21:30:18;6.20;99.40
2929;DHT22;1474;51.460;7.150;2024-03-07T21:32:50;6.20;99.50
2929;DHT22;1474;51.460;7.150;2024-03-07T21:35:19;6.20;99.60
2929;DHT22;1474;51.460;7.150;2024-03-07T21:37:45;6.10;99.50
2929;DHT22;1474;51.460;7.150;2024-03-07T21:40:13;6.00;99.40
2929;DHT22;1474;51.460;7.150;2024-03-07T21:42:50;5.90;99.30
2929;DHT22;1474;51.460;7.150;2024-03-07T21:45:17;5.70;99.90
2929;DHT22;1474;51.460;7.150;2024-03-07T21:47:44;5.40;99.90
2929;DHT22;1474;51.460;7.150;2024-03-07T21:50:10;5.30;99.90
2929;DHT22;1474;51.460;7.150;2024-03-07T21:52:48;5.30;99.90
2929;DHT22;1474;51.460;7.150;2024-03-07T21:55:14;5.20;99.90
2929;DHT22;1474;51.460;7.150;2024-03-07T21:57:45;5.00;99.90
2929;DHT22;1474;51.460;7.150;2024-03-07T22:00:12;5.00;99.90
2929;DHT22;1474;51.460;7.150;2024-03-07T22:02:43;5.00;99.90
2929;DHT22;1474;51.460;7.150;2024-03-07T22:05:10;4.90;99.90
2929;DHT22;1474;51.460;7.150;2024-03-07T22:07:39;4.90;99.90
2929;DHT22;1474;51.460;7.150;2024-03-07T22:10:08;4.90;99.90
2929;DHT22;1474;51.460;7.150;2024-03-07T22:12:40;4.90;99.90
2929;DHT22;1474;51.460;7.150;2024-03-07T22:15:07;4.80;99.90
2929;DHT22;1474;51.460;7.150;2024-03-07T22:17:33;4.90;99.90
2929;DHT22;1474;51.460;7.150;2024-03-07T22:19:59;4.90;99.90
2929;DHT22;1474;51.460;7.150;2024-03-07T22:22:25;4.90;99.90
2929;DHT22;1474;51.460;7.150;2024-03-07T22:24:50;4.90;99.90
2929;DHT22;1474;51.460;7.150;2024-03-07T22:27:18;4.90;99.90
2929;DHT22;1474;51.460;7.150;2024-03-07T22:29:45;4.90;99.90
2929;DHT22;1474;51.460;7.150;2024-03-07T22:32:11;4.80;99.90
2929;DHT22;1474;51.460;7.150;2024-03-07T22:34:39;4.80;99.90
2929;DHT22;1474;51.460;7.150;2024-03-07T22:37:05;4.80;99.90
2929;DHT22;1474;51.460;7.150;2024-03-07T22:39:34;4.80;99.90
2929;DHT22;1474;51.460;7.150;2024-03-07T22:41:59;4.70;99.90
2929;DHT22;1474;51.460;7.150;2024-03-07T22:44:25;4.70;99.90
2929;DHT22;1474;51.460;7.150;2024-03-07T22:46:52;4.70;99.90
2929;DHT22;1474;51.460;7.150;2024-03-07T22:49:18;4.60;99.90
2929;DHT22;1474;51.460;7.150;2024-03-07T22:51:45;4.60;99.90
2929;DHT22;1474;51.460;7.150;2024-03-07T22:54:11;4.60;99.90
2929;DHT22;1474;51.460;7.150;2024-03-07T22:56:37;4.40;99.90
2929;DHT22;1474;51.460;7.150;2024-03-07T22:59:05;4.40;99.90
2929;DHT22;1474;51.460;7.150;2024-03-07T23:01:32;4.50;99.90
2929;DHT22;1474;51.460;7.150;2024-03-07T23:03:59;4.50;99.90
2929;DHT22;1474;51.460;7.150;2024-03-07T23:06:43;4.50;99.90
2929;DHT22;1474;51.460;7.150;2024-03-07T23:09:27;4.50;99.90
2929;DHT22;1474;51.460;7.150;2024-03-07T23:12:12;4.50;99.90
2929;DHT22;1474;51.460;7.150;2024-03-07T23:14:56;4.40;99.90
2929;DHT22;1474;51.460;7.150;2024-03-07T23:17:41;4.30;99.90
2929;DHT22;1474;51.460;7.150;2024-03-07T23:20:27;4.40;99.90
2929;DHT22;1474;51.460;7.150;2024-03-07T23:23:13;4.40;99.90
2929;DHT22;1474;51.460;7.150;2024-03-07T23:25:57;4.30;99.90
2929;DHT22;1474;51.460;7.150;2024-03-07T23:28:41;4.40;99.90
2929;DHT22;1474;51.460;7.150;2024-03-07T23:31:27;4.40;99.90
2929;DHT22;1474;51.460;7.150;2024-03-07T23:34:14;4.30;99.90
2929;DHT22;1474;51.460;7.150;2024-03-07T23:36:59;4.20;99.90
2929;DHT22;1474;51.460;7.150;2024-03-07T23:39:43;4.10;99.90
2929;DHT22;1474;51.460;7.150;2024-03-07T23:42:28;4.00;99.90
2929;DHT22;1474;51.460;7.150;2024-03-07T23:45:13;4.10;99.90
2929;DHT22;1474;51.460;7.150;2024-03-07T23:47:57;4.00;99.90
2929;DHT22;1474;51.460;7.150;2024-03-07T23:50:42;4.00;99.90
2929;DHT22;1474;51.460;7.150;2024-03-07T23:53:26;4.00;99.90
2929;DHT22;1474;51.460;7.150;2024-03-07T23:56:11;4.00;99.90
2929;DHT22;1474;51.460;7.150;2024-03-07T23:58:55;3.90;99.90
